MMTO 090750Z 13003KT 6SM SKC 05/03 A3042 RMK HZY= 090750

MMTO 090654Z 07003KT 6SM SKC 06/03 A3043 RMK HZY= 090654

MMTO 090547Z 00000KT 6SM SKC 07/04 A3044 RMK SLP121 57009 953 HZY= 090548

MMTO 090449Z 00000KT 6SM SKC 08/04 A3045 RMK HZY= 090449

MMTO 090348Z 35004KT 5SM SKC 09/04 A3045 RMK HZY CI= 090349

MMTO 090248Z 01004KT 5SM SKC 10/04 A3043 RMK SLP174 52027 905 HZY CI= 090249

MMTO 090146Z 36004KT 6SM SKC 12/04 A3040 RMK HZY= 090146

MMTO 090046Z 15008KT 7SM SKC 14/04 A3038 RMK HZY= 090046

MMTO 082350Z 14011KT 8SM SKC 16/05 A3036 RMK SLP143 52005 957 HZY= 082350

MMTO 082249Z 17014KT 8SM SKC 20/03 A3034 RMK HZY ISOL CU= 082250

SPECI MMTO 082241Z 16014KT 8SM SKC 20/04 A3034 RMK HZY ISOL CU= 082242

MMTO 082147Z 00000KT 8SM SKC 22/M02 A3033 RMK HZY ISOL AC CU= 082148

MMTO 082046Z 33003KT 8SM SKC 22/01 A3034 RMK SLP090 57026 908 HZY ISOL CU AC= 082047

MMTO 081949Z 23005KT 8SM SKC 22/00 A3036 RMK HZY CI= 081949

MMTO 081849Z 04004KT 7SM SKC 21/M01 A3040 RMK HZY CI= 081849

MMTO 081747Z 30004KT 7SM SKC 20/M03 A3044 RMK SLP125 57018 907 HZY CI= 081748

MMTO 081646Z 15003KT 5SM SKC 17/03 A3048 RMK HZY CI= 081646

MMTO 081547Z 00000KT 4SM FEW240 13/04 A3051 RMK 8/001 HZY= 081547

SPECI MMTO 081513Z 14003KT 3SM BR FEW240 11/04 A3051 RMK 8/001 HZY= 081513

MMTO 081447Z 08003KT 3SM BR FEW240 08/03 A3051 RMK SLP196 52013 926 8/001 HZY= 081448

MMTO 081440Z 14003KT 3SM BR FEW240 08/04 A3050 RMK 8/001 HZY= 081440

SPECI MMTO 081409Z 00000KT 2SM BR SCT240 05/03 A3050 RMK 8/001 HZY= 081410

COR MMTO 081347Z 00000KT 2SM BR SCT240 02/02 A3049 RMK 8/001 HZY= 081348

MMTO 081347Z 00000KT 2SM BR SCT240 02/02 A3048 RMK 8/001 HZY= 081347

MMTO 081249Z 04003KT 2SM BR SCT240 01/01 A3047 RMK 8/001 HZY LWR VSBY NW BCFG= 081250

MMTO 081147Z 00000KT 6SM SKC 02/02 A3044 RMK SLP173 57008 913 HZY BR= 081148

MMTO 081046Z 00000KT 7SM SKC 04/04 A3042 RMK HZY BR FRMG= 081046

MMTO 080946Z 00000KT 8SM SKC 04/02 A3042 RMK HZY= 080946

MMTO 080848Z 04003KT 8SM SKC 04/03 A3042 RMK SLP147 52013 916 HZY= 080849

MMTO 080747Z 09003KT 8SM SKC 04/03 A3042 RMK HZY= 080747

MMTO 080647Z 00000KT 8SM SKC 05/03 A3042 RMK HZY= 080648

MMTO 080547Z 00000KT 8SM SKC 07/04 A3042 RMK SLP125 57001 901 HZY= 080547

MMTO 080448Z 00000KT 8SM SKC 08/05 A3042 RMK HZY= 080448

MMTO 080350Z 00000KT 8SM SKC 10/04 A3042 RMK HZY= 080351

MMTO 080247Z 36005KT 8SM SKC 10/02 A3038 RMK SLP167 57015 964 HZY= 080247

MMTO 080146Z 07005KT 8SM SKC 11/01 A3036 RMK HZY= 080147

MMTO 080046Z 00000KT 8SM SKC 15/01 A3035 RMK HZY= 080046

MMTO 072349Z 18007KT 8SM FEW020 17/01 A3033 RMK SLP147 52020 904 8/100 HZY= 072350

MMTO 072249Z 18010KT 8SM SKC 19/00 A3031 RMK HZY= 072252

MMTO 072146Z 13014KT 8SM SKC 21/00 A3031 RMK HZY= 072146

MMTO 072046Z 09005KT 8SM SKC 22/00 A3032 RMK SLP079 57027 962 HZY= 072050

MMTO 071949Z 17010KT 8SM SKC 23/M02 A3034 RMK HZY= 071949

MMTO 071848Z 22005KT 8SM SKC 22/00 A3037 RMK HZY= 071848

MMTO 071747Z 12004KT 7SM SKC 20/04 A3042 RMK SLP121 52001 960 HZY= 071747

MMTO 071647Z 13009KT 7SM SKC 17/05 A3044 RMK HZY= 071648

MMTO 071547Z 08004KT 6SM SKC 14/06 A3044 RMK HZY VSBY LWR SE= 071547

SPECI MMTO 071527Z 15003KT 5SM SKC 13/06 A3044 RMK HZY= 071528

MMTO 071448Z 16003KT 5SM SKC 09/05 A3044 RMK SLP145 54000 972 HZY= 071448

SPECI MMTO 071423Z 00000KT 4SM SKC 06/04 A3044 RMK HZY CI= 071424

MMTO 071346Z 03003KT 4SM SKC 03/03 A3042 RMK HZY CI= 071347